Ship Status Report: callsign BR3037

sailwx.info

Track history (hours):
 
Tides and Currents Weather Stations Pressure Air Temp Water Temp Dewpoint Dewpoint Depression Visibility Wind Speed Wind Dir Waves Ship Positions

Oceanographic research ship ()

Last reported at 2017-Jun-26 04:11 UTC. Time now 2017-Jun-28 07:05 UTC.
Position N 22°34' E 120°10'.

Length 39 m.

Type: Other ship. MMSI: 416926000.

Date/timePositionNaut miles runAvg speedWind from/ knotsBaromVisibWave heightAir tempDewpointWater temp
2017-Jun-26 04:11N 22°34' E 120°10'210.7
2017-Jun-26 04:00N 22°36' E 120°11'4 7.8
2017-Jun-26 03:30N 22°37' E 120°15'  
2017-Jun-23 23:11N 22°37' E 120°17'2 9.7
2017-Jun-23 23:00N 22°37' E 120°15'  
2017-Jun-19 03:45N 22°37' E 120°10'2 9.2
2017-Jun-19 03:30N 22°38' E 120°13'4 0.2
2017-Jun-18 08:31N 22°37' E 120°16'010.2
2017-Jun-18 08:30N 22°37' E 120°16'3 5.9
2017-Jun-18 07:59N 22°38' E 120°13'3 5.2
2017-Jun-18 07:30N 22°35' E 120°12'2 0.1
2017-Jun-17 04:19N 22°37' E 120°11'2 5.7
2017-Jun-17 04:00N 22°38' E 120°12'  
Track history (hours):
 
Tides and Currents Weather Stations Pressure Air Temp Water Temp Dewpoint Dewpoint Depression Visibility Wind Speed Wind Dir Waves Ship Positions

Oceanographic research ship ()

Last reported at 2017-Jun-26 04:11 UTC. Time now 2017-Jun-28 07:05 UTC.
Position N 22°34' E 120°10'.

Length 39 m.

Type: Other ship. MMSI: 416926000.

Date/timePositionNaut miles runAvg speedWind from/ knotsBaromVisibWave heightAir tempDewpointWater temp
2017-Jun-26 04:11N 22°34' E 120°10'210.7
2017-Jun-26 04:00N 22°36' E 120°11'4 7.8
2017-Jun-26 03:30N 22°37' E 120°15'  
2017-Jun-23 23:11N 22°37' E 120°17'2 9.7
2017-Jun-23 23:00N 22°37' E 120°15'  
2017-Jun-19 03:45N 22°37' E 120°10'2 9.2
2017-Jun-19 03:30N 22°38' E 120°13'4 0.2
2017-Jun-18 08:31N 22°37' E 120°16'010.2
2017-Jun-18 08:30N 22°37' E 120°16'3 5.9
2017-Jun-18 07:59N 22°38' E 120°13'3 5.2
2017-Jun-18 07:30N 22°35' E 120°12'2 0.1
2017-Jun-17 04:19N 22°37' E 120°11'2 5.7
2017-Jun-17 04:00N 22°38' E 120°12'  

Dump ship's entire track history